createdAt,value
2022-08-03T00:00:01.260Z,990.1922
2022-08-03T00:01:00.432Z,990.3307
2022-08-03T00:02:00.575Z,990.2808
2022-08-03T00:03:00.769Z,990.4988
2022-08-03T00:04:00.875Z,990.4354
2022-08-03T00:05:01.029Z,990.4354
2022-08-03T00:06:04.673Z,990.4988
2022-08-03T00:07:00.346Z,990.4988
2022-08-03T00:08:00.483Z,990.304
2022-08-03T00:09:00.642Z,990.3993
2022-08-03T00:10:00.787Z,990.3631
2022-08-03T00:11:00.947Z,990.4354
2022-08-03T00:12:01.115Z,990.4354
2022-08-03T00:13:01.257Z,990.3631
2022-08-03T00:14:00.406Z,990.3197
2022-08-03T00:15:00.559Z,990.3057
2022-08-03T00:16:00.716Z,990.2474
2022-08-03T00:17:00.882Z,990.3197
2022-08-03T00:18:01.004Z,990.3127
2022-08-03T00:19:01.190Z,990.2765
2022-08-03T00:20:00.322Z,990.3281
2022-08-03T00:21:00.458Z,990.2555
2022-08-03T00:22:00.640Z,990.3647
2022-08-03T00:23:00.764Z,990.3216
2022-08-03T00:24:00.926Z,990.5455
2022-08-03T00:25:01.076Z,990.5093
2022-08-03T00:26:01.238Z,990.4732
2022-08-03T00:27:00.414Z,990.396
2022-08-03T00:28:00.552Z,990.2725
2022-08-03T00:29:00.700Z,990.4039
2022-08-03T00:30:00.876Z,990.2373
2022-08-03T00:31:01.027Z,990.4039
2022-08-03T00:32:01.209Z,990.3095
2022-08-03T00:33:00.330Z,990.2664
2022-08-03T00:34:03.371Z,990.4902
2022-08-03T00:35:00.626Z,990.3467
2022-08-03T00:36:00.776Z,990.3176
2022-08-03T00:37:00.955Z,990.3176
2022-08-03T00:38:01.092Z,990.5414
2022-08-03T00:39:01.243Z,990.3545
2022-08-03T00:40:00.402Z,990.1952
2022-08-03T00:41:00.552Z,990.2974
2022-08-03T00:42:00.735Z,990.2616
2022-08-03T00:43:00.847Z,990.3125
2022-08-03T00:44:01.001Z,990.2255
2022-08-03T00:45:01.149Z,990.2109
2022-08-03T00:46:00.309Z,990.1527
2022-08-03T00:47:00.473Z,990.2982
2022-08-03T00:48:00.602Z,990.226
2022-08-03T00:49:00.824Z,990.3424
2022-08-03T00:50:00.910Z,990.3573
2022-08-03T00:51:01.062Z,990.1829
2022-08-03T00:52:01.243Z,990.2991
2022-08-03T00:53:00.372Z,990.2268
2022-08-03T00:54:00.526Z,990.2268
2022-08-03T00:55:00.662Z,990.2489
2022-08-03T00:56:00.836Z,990.0673
2022-08-03T00:57:00.996Z,990.3293
2022-08-03T00:58:01.134Z,990.3072
2022-08-03T00:59:00.305Z,990.2128
2022-08-03T01:00:00.448Z,990.2932
2022-08-03T01:01:00.641Z,990.0684
2022-08-03T01:02:00.739Z,990.2431
2022-08-03T01:03:00.891Z,990.2288
2022-08-03T01:04:01.057Z,990.1927
2022-08-03T01:05:01.242Z,990.1566
2022-08-03T01:06:00.353Z,990.6422
2022-08-03T01:07:00.504Z,990.1857
2022-08-03T01:08:00.662Z,990.2439
2022-08-03T01:09:00.817Z,990.1857
2022-08-03T01:10:00.985Z,990.4185
2022-08-03T01:11:01.135Z,990.2439
2022-08-03T01:12:01.700Z,990.3172
2022-08-03T01:13:00.431Z,990.2299
2022-08-03T01:14:04.551Z,990.3172
2022-08-03T01:15:00.769Z,990.2811
2022-08-03T01:16:00.911Z,990.3463
2022-08-03T01:17:01.060Z,990.1213
2022-08-03T01:18:01.209Z,990.4905
2022-08-03T01:19:00.361Z,990.4416
2022-08-03T01:20:00.524Z,990.4344
2022-08-03T01:21:00.679Z,990.4344
2022-08-03T01:22:00.814Z,990.4416
2022-08-03T01:23:00.982Z,990.4416
2022-08-03T01:24:01.130Z,990.4344
2022-08-03T01:25:00.272Z,990.3983
2022-08-03T01:26:00.450Z,990.3261
2022-08-03T01:27:00.588Z,990.2106
2022-08-03T01:28:00.742Z,990.2189
2022-08-03T01:29:00.898Z,990.2547
2022-08-03T01:30:01.049Z,990.2119
2022-08-03T01:31:01.216Z,990.2838
2022-08-03T01:32:58.411Z,990.2992
2022-08-03T01:33:01.883Z,990.2189
2022-08-03T01:34:00.692Z,990.1317
2022-08-03T01:35:00.850Z,990.2268
2022-08-03T01:36:01.027Z,990.3431
2022-08-03T01:37:01.177Z,990.1907
2022-08-03T01:38:00.306Z,990.1185
2022-08-03T01:39:00.481Z,990.1767
2022-08-03T01:40:00.603Z,990.1767
2022-08-03T01:41:00.756Z,990.2268
2022-08-03T01:42:00.929Z,990.4233
2022-08-03T01:43:01.055Z,990.2349
2022-08-03T01:44:29.220Z,990.2718
2022-08-03T01:45:00.359Z,990.2349
2022-08-03T01:46:00.513Z,990.0973
2022-08-03T01:47:00.681Z,990.1845
2022-08-03T01:48:00.814Z,990.2718
2022-08-03T01:49:01.039Z,990.229
2022-08-03T01:50:01.116Z,990.3248
2022-08-03T01:51:00.255Z,990.2016
2022-08-03T01:52:05.044Z,990.1373
2022-08-03T01:53:00.566Z,990.0582
2022-08-03T01:54:00.723Z,990.1311
2022-08-03T01:55:00.883Z,990.1322
2022-08-03T01:56:01.024Z,990.154
2022-08-03T01:57:01.198Z,990.0168
2022-08-03T01:58:06.268Z,990.1761
2022-08-03T01:59:00.481Z,990.0529
2022-08-03T02:00:00.617Z,990.1554
2022-08-03T02:01:00.822Z,990.0691
2022-08-03T02:02:32.023Z,990.2085
2022-08-03T02:03:01.102Z,989.9981
2022-08-03T02:04:01.351Z,990.2372
2022-08-03T02:05:00.366Z,990.4406
2022-08-03T02:07:00.215Z,990.0342
2022-08-03T02:07:03.065Z,990.0048
2022-08-03T02:08:00.843Z,990.2004
2022-08-03T02:09:00.987Z,990.0551
2022-08-03T02:10:01.140Z,990.0694
2022-08-03T02:11:00.281Z,990.1272
2022-08-03T02:12:00.438Z,990.1342
2022-08-03T02:13:00.610Z,990.0981
2022-08-03T02:14:00.723Z,990.1423
2022-08-03T02:15:01.040Z,990.0853
2022-08-03T02:16:01.036Z,990.1652
2022-08-03T02:17:01.215Z,990.028
2022-08-03T02:18:00.355Z,990.0501
2022-08-03T02:19:00.485Z,990.2244
2022-08-03T02:20:00.653Z,990.2604
2022-08-03T02:21:00.805Z,990.2244
2022-08-03T02:22:01.838Z,990.2604
2022-08-03T02:23:01.138Z,990.006
2022-08-03T02:24:00.271Z,990.1222
2022-08-03T02:25:00.433Z,989.9118
2022-08-03T02:26:01.920Z,990.1523
2022-08-03T02:27:00.743Z,990.2171
2022-08-03T02:28:00.915Z,990.1883
2022-08-03T02:29:01.083Z,990.028
2022-08-03T02:30:01.191Z,989.999
2022-08-03T02:31:00.342Z,989.9557
2022-08-03T02:32:00.507Z,989.9557
2022-08-03T02:33:00.661Z,990.073
2022-08-03T02:34:00.827Z,990.1814
2022-08-03T02:35:00.955Z,990.073
2022-08-03T02:36:01.140Z,990.0018
2022-08-03T02:37:00.274Z,990.0247
2022-08-03T02:38:00.424Z,990.0697
2022-08-03T02:39:00.584Z,990.1071
2022-08-03T02:40:00.716Z,990.0998
2022-08-03T02:41:00.867Z,990.1071
2022-08-03T02:42:01.014Z,990.02
2022-08-03T02:43:01.161Z,990.1071
2022-08-03T02:44:06.995Z,990.1579
2022-08-03T02:45:00.473Z,990.0719
2022-08-03T02:46:00.620Z,989.991
2022-08-03T02:47:00.769Z,990.1637
2022-08-03T02:48:00.927Z,990.2218
2022-08-03T02:49:01.142Z,990.1928
2022-08-03T02:50:01.279Z,990.0766
2022-08-03T02:51:00.376Z,990.0549
2022-08-03T02:52:00.529Z,990.1637
2022-08-03T02:53:00.687Z,990.1277
2022-08-03T02:54:00.883Z,990.0127
2022-08-03T02:55:01.016Z,990.058
2022-08-03T02:56:01.142Z,990.0368
2022-08-03T02:57:00.301Z,990.0521
2022-08-03T02:58:01.664Z,990.1682
2022-08-03T02:59:00.633Z,990.0747
2022-08-03T03:00:00.764Z,990.0747
2022-08-03T03:01:00.966Z,990.0976
2022-08-03T03:02:01.066Z,990.1118
2022-08-03T03:03:01.220Z,990.1408
2022-08-03T03:04:00.412Z,989.9737
2022-08-03T03:05:55.589Z,990.0599
2022-08-03T03:06:00.694Z,989.9439
2022-08-03T03:07:01.682Z,990.0158
2022-08-03T03:08:01.000Z,989.9941
2022-08-03T03:09:01.180Z,990.0518
2022-08-03T03:10:00.307Z,990.0811
2022-08-03T03:11:00.475Z,990.1389
2022-08-03T03:12:00.623Z,990.1177
2022-08-03T03:13:00.772Z,990.1467
2022-08-03T03:14:00.958Z,990.0449
2022-08-03T03:15:01.074Z,989.8858
2022-08-03T03:16:01.238Z,989.9578
2022-08-03T03:17:00.383Z,990.0158
2022-08-03T03:18:00.533Z,990.0158
2022-08-03T03:19:00.714Z,989.8998
2022-08-03T03:20:00.839Z,990.0016
2022-08-03T03:21:00.991Z,989.9587
2022-08-03T03:22:01.141Z,989.9447
2022-08-03T03:23:00.385Z,990.0036
2022-08-03T03:24:00.463Z,989.9235
2022-08-03T03:25:00.622Z,990.0248
2022-08-03T03:26:00.750Z,989.9009
2022-08-03T03:27:00.912Z,989.8719
2022-08-03T03:28:01.100Z,990.0898
2022-08-03T03:29:01.217Z,990.0175
2022-08-03T03:30:00.386Z,990.0036
2022-08-03T03:31:00.511Z,989.9746
2022-08-03T03:32:00.671Z,990.0036
2022-08-03T03:33:00.842Z,989.8295
2022-08-03T03:34:00.982Z,990.0616
2022-08-03T03:35:01.159Z,990.0036
2022-08-03T03:36:00.285Z,990.0326
2022-08-03T03:37:00.439Z,990.0616
2022-08-03T03:38:00.593Z,990.0616
2022-08-03T03:39:15.581Z,990.0326
2022-08-03T03:40:00.901Z,990.0616
2022-08-03T03:41:01.047Z,990.1777
2022-08-03T03:42:01.188Z,990.0117
2022-08-03T03:43:00.335Z,990.0906
2022-08-03T03:44:00.486Z,989.9394
2022-08-03T03:45:00.664Z,989.9464
2022-08-03T03:46:00.788Z,990.0044
2022-08-03T03:47:00.955Z,990.0906
2022-08-03T03:48:01.108Z,989.9394
2022-08-03T03:50:00.388Z,989.9394
2022-08-03T03:51:00.516Z,989.9685
2022-08-03T03:52:00.669Z,990.0485
2022-08-03T03:53:00.815Z,990.0265
2022-08-03T03:54:00.978Z,989.9685
2022-08-03T03:55:01.752Z,990.1355
2022-08-03T03:56:02.887Z,989.8536
2022-08-03T03:57:00.429Z,989.9475
2022-08-03T03:58:00.580Z,990.1576
2022-08-03T03:59:00.736Z,989.9035
2022-08-03T04:00:00.899Z,990.0125
2022-08-03T04:01:01.164Z,989.9545
2022-08-03T04:02:01.195Z,989.9545
2022-08-03T04:03:00.348Z,989.9545
2022-08-03T04:04:00.504Z,990.0636
2022-08-03T04:05:00.665Z,990.0566
2022-08-03T04:06:00.827Z,990.0137
2022-08-03T04:07:00.954Z,990.1877
2022-08-03T04:08:01.112Z,990.1877
2022-08-03T04:09:00.266Z,990.1445
2022-08-03T04:10:08.855Z,990.1445
2022-08-03T04:11:00.574Z,990.1445
2022-08-03T04:12:00.735Z,990.1445
2022-08-03T04:13:00.870Z,990.0798
2022-08-03T04:14:01.955Z,990.1877
2022-08-03T04:15:01.185Z,989.9414
2022-08-03T04:16:00.323Z,990.0424
2022-08-03T04:17:00.475Z,990.2524
2022-08-03T04:18:00.642Z,990.1877
2022-08-03T04:19:00.772Z,989.8106
2022-08-03T04:20:00.935Z,990.0784
2022-08-03T04:21:01.082Z,990.0276
2022-08-03T04:22:01.237Z,989.9185
2022-08-03T04:23:00.417Z,990.0926
2022-08-03T04:24:00.535Z,990.0636
2022-08-03T04:25:00.683Z,990.0056
2022-08-03T04:26:00.833Z,989.9545
2022-08-03T04:27:00.986Z,989.9905
2022-08-03T04:28:19.683Z,990.2075
2022-08-03T04:29:00.291Z,990.0625
2022-08-03T04:30:00.439Z,990.2075
2022-08-03T04:31:00.599Z,990.0625
2022-08-03T04:32:00.743Z,990.1777
2022-08-03T04:33:00.919Z,990.1777
2022-08-03T04:34:01.052Z,990.0828
2022-08-03T04:35:01.218Z,990.017
2022-08-03T04:36:02.921Z,990.2488
2022-08-03T04:37:00.524Z,990.046
2022-08-03T04:38:00.686Z,990.1319
2022-08-03T04:39:00.833Z,990.0521
2022-08-03T04:40:00.961Z,990.0951
2022-08-03T04:41:01.150Z,990.109
2022-08-03T04:42:04.675Z,990.058
2022-08-03T04:43:00.435Z,990.0359
2022-08-03T04:44:00.561Z,990.087
2022-08-03T04:45:01.797Z,990.0649
2022-08-03T04:46:00.876Z,990.087
2022-08-03T04:47:01.037Z,990.2391
2022-08-03T04:48:02.113Z,990.159
2022-08-03T04:49:00.381Z,990.2461
2022-08-03T04:50:00.478Z,990.1442
2022-08-03T04:51:00.645Z,990.1802
2022-08-03T04:52:00.793Z,990.1651
2022-08-03T04:53:00.972Z,990.1651
2022-08-03T04:54:01.099Z,990.085
2022-08-03T04:55:01.252Z,990.396
2022-08-03T04:56:01.303Z,990.4393
2022-08-03T04:57:00.557Z,990.2361
2022-08-03T04:58:00.740Z,990.228
2022-08-03T04:59:00.897Z,990.3151
2022-08-03T05:00:03.617Z,990.4792
2022-08-03T05:01:01.175Z,990.2559
2022-08-03T05:02:00.416Z,990.2701
2022-08-03T05:03:00.490Z,990.2481
2022-08-03T05:04:00.667Z,990.3852
2022-08-03T05:05:00.829Z,990.3414
2022-08-03T05:06:09.436Z,990.2975
2022-08-03T05:07:11.736Z,990.4347
2022-08-03T05:09:00.407Z,990.3325
2022-08-03T05:10:03.070Z,990.3978
2022-08-03T05:11:00.676Z,990.3758
2022-08-03T05:12:00.845Z,990.576
2022-08-03T05:13:01.000Z,990.2795
2022-08-03T05:14:01.177Z,990.2135
2022-08-03T05:15:00.326Z,990.3287
2022-08-03T05:16:00.477Z,990.2264
2022-08-03T05:17:00.641Z,990.2253
2022-08-03T05:18:00.781Z,990.2465
2022-08-03T05:19:00.967Z,990.4129
2022-08-03T05:20:01.093Z,990.2737
2022-08-03T05:21:01.230Z,990.2438
2022-08-03T05:22:00.376Z,990.3372
2022-08-03T05:23:00.539Z,990.3431
2022-08-03T05:24:00.712Z,990.3269
2022-08-03T05:25:00.848Z,990.1876
2022-08-03T05:26:00.997Z,990.5699
2022-08-03T05:27:01.153Z,990.2209
2022-08-03T05:28:00.307Z,990.3724
2022-08-03T05:29:00.490Z,990.1381
2022-08-03T05:30:30.726Z,990.3677
2022-08-03T05:31:00.765Z,990.5455
2022-08-03T05:32:03.710Z,990.2244
2022-08-03T05:33:01.094Z,990.331
2022-08-03T05:34:01.240Z,990.2267
2022-08-03T05:35:00.383Z,990.2761
2022-08-03T05:36:04.294Z,990.2229
2022-08-03T05:37:00.660Z,990.3154
2022-08-03T05:38:00.809Z,990.2409
2022-08-03T05:39:02.745Z,990.37
2022-08-03T05:40:01.129Z,990.2008
2022-08-03T05:41:22.650Z,990.1407
2022-08-03T05:42:00.409Z,990.292
2022-08-03T05:43:00.558Z,990.1517
2022-08-03T05:44:00.714Z,990.3401
2022-08-03T05:45:00.879Z,990.157
2022-08-03T05:46:11.629Z,990.2941
2022-08-03T05:47:01.170Z,990.2416
2022-08-03T05:48:00.307Z,990.1745
2022-08-03T05:49:00.570Z,990.1008
2022-08-03T05:50:00.646Z,990.1427
2022-08-03T05:51:00.764Z,990.2509
2022-08-03T05:52:12.937Z,990.1332
2022-08-03T05:53:01.071Z,990.2411
2022-08-03T05:54:01.228Z,990.1008
2022-08-03T05:55:00.410Z,990.2896
2022-08-03T05:56:14.610Z,990.2373
2022-08-03T05:57:00.687Z,990.2142
2022-08-03T05:58:00.843Z,990.3076
2022-08-03T05:59:16.282Z,990.2987
2022-08-03T06:00:01.157Z,990.1585
2022-08-03T06:01:00.285Z,990.1788
2022-08-03T06:02:00.508Z,990.2427
2022-08-03T06:03:00.599Z,990.1752
2022-08-03T06:04:00.758Z,990.3783
2022-08-03T06:05:00.916Z,990.2448
2022-08-03T06:06:01.062Z,990.1924
2022-08-03T06:07:01.223Z,990.2795
2022-08-03T06:08:00.360Z,990.1169
2022-08-03T06:09:00.520Z,990.1732
2022-08-03T06:10:35.007Z,990.1126
2022-08-03T06:11:00.823Z,990.1916
2022-08-03T06:12:00.995Z,990.2271
2022-08-03T06:13:01.155Z,990.1967
2022-08-03T06:14:00.282Z,990.0858
2022-08-03T06:15:00.419Z,990.2464
2022-08-03T06:16:00.574Z,990.2738
2022-08-03T06:17:00.728Z,990.2729
2022-08-03T06:18:02.118Z,990.4823
2022-08-03T06:19:01.060Z,990.0799
2022-08-03T06:20:01.186Z,990.24
2022-08-03T06:21:14.365Z,990.1804
2022-08-03T06:22:00.476Z,990.3332
2022-08-03T06:23:01.151Z,990.2149
2022-08-03T06:24:00.810Z,990.1324
2022-08-03T06:25:04.261Z,990.1833
2022-08-03T06:26:01.097Z,990.2553
2022-08-03T06:27:01.249Z,990.1519
2022-08-03T06:28:00.401Z,990.1734
2022-08-03T06:29:00.573Z,990.2098
2022-08-03T06:30:00.693Z,990.1502
2022-08-03T06:31:00.908Z,990.2373
2022-08-03T06:32:00.999Z,990.1256
2022-08-03T06:33:01.169Z,990.1169
2022-08-03T06:34:34.096Z,990.2464
2022-08-03T06:35:00.483Z,990.1715
2022-08-03T06:36:00.610Z,990.0903
2022-08-03T06:37:02.327Z,990.1768
2022-08-03T06:38:00.915Z,990.2179
2022-08-03T06:39:01.092Z,990.1508
2022-08-03T06:40:01.245Z,990.4279
2022-08-03T06:41:00.372Z,990.1905
2022-08-03T06:42:00.520Z,990.1084
2022-08-03T06:43:00.680Z,990.1064
2022-08-03T06:44:03.014Z,990.222
2022-08-03T06:45:01.017Z,990.214
2022-08-03T06:46:01.142Z,990.1684
2022-08-03T06:47:00.290Z,990.2486
2022-08-03T06:48:00.447Z,990.1602
2022-08-03T06:49:00.649Z,990.1806
2022-08-03T06:50:16.437Z,990.3193
2022-08-03T06:51:00.893Z,990.2002
2022-08-03T06:52:04.595Z,990.1912
2022-08-03T06:53:01.204Z,990.3077
2022-08-03T06:54:00.355Z,990.122
2022-08-03T06:55:00.548Z,990.2593
2022-08-03T06:56:00.658Z,990.3166
2022-08-03T06:57:00.820Z,990.2942
2022-08-03T06:58:03.459Z,990.2344
2022-08-03T06:59:01.147Z,990.2321
2022-08-03T07:00:07.495Z,990.2321
2022-08-03T07:01:00.537Z,990.2841
2022-08-03T07:02:00.609Z,990.3494
2022-08-03T07:03:00.753Z,990.1121
2022-08-03T07:04:00.912Z,990.4062
2022-08-03T07:05:01.092Z,990.1995
2022-08-03T07:06:01.215Z,990.0868
2022-08-03T07:07:00.374Z,990.0939
2022-08-03T07:08:00.520Z,990.0993
2022-08-03T07:09:00.690Z,990.1055
2022-08-03T07:10:00.863Z,990.2951
2022-08-03T07:11:00.991Z,990.2794
2022-08-03T07:12:01.157Z,990.2502
2022-08-03T07:13:00.303Z,990.2939
2022-08-03T07:14:00.458Z,990.3144
2022-08-03T07:15:01.889Z,990.2329
2022-08-03T07:16:00.751Z,990.2411
2022-08-03T07:17:00.913Z,990.2636
2022-08-03T07:18:01.100Z,990.0862
2022-08-03T07:19:01.248Z,990.182
2022-08-03T07:20:00.455Z,990.2769
2022-08-03T07:21:00.551Z,990.1496
2022-08-03T07:22:02.162Z,990.2301
2022-08-03T07:23:00.872Z,990.215
2022-08-03T07:24:01.011Z,990.1177
2022-08-03T07:25:01.158Z,990.163
2022-08-03T07:26:00.322Z,990.1177
2022-08-03T07:27:00.463Z,990.236
2022-08-03T07:28:00.653Z,990.0577
2022-08-03T07:29:00.780Z,990.2187
2022-08-03T07:30:00.919Z,990.0998
2022-08-03T07:31:01.073Z,990.0916
2022-08-03T07:32:01.225Z,990.1658
2022-08-03T07:33:00.384Z,990.1283
2022-08-03T07:34:00.562Z,990.0998
2022-08-03T07:35:01.369Z,990.1875
2022-08-03T07:36:00.836Z,990.1041
2022-08-03T07:37:00.976Z,990.206
2022-08-03T07:38:01.130Z,990.1246
2022-08-03T07:39:00.300Z,990.0437
2022-08-03T07:40:00.444Z,990.1172
2022-08-03T07:41:00.591Z,990.1308
2022-08-03T07:42:00.745Z,990.0867
2022-08-03T07:43:00.899Z,990.0867
2022-08-03T07:44:01.061Z,990.1969
2022-08-03T07:45:01.200Z,989.9663
2022-08-03T07:46:00.354Z,990.1206
2022-08-03T07:47:03.229Z,990.2094
2022-08-03T07:48:00.653Z,990.1878
2022-08-03T07:49:00.924Z,990.1511
2022-08-03T07:50:00.958Z,990.003
2022-08-03T07:51:01.124Z,990.054
2022-08-03T07:52:00.276Z,990.1286
2022-08-03T07:53:00.434Z,990.2336
2022-08-03T07:54:00.604Z,990.0551
2022-08-03T07:55:00.729Z,990.0765
2022-08-03T07:56:00.878Z,990.2245
2022-08-03T07:57:01.030Z,989.9785
2022-08-03T07:58:01.176Z,990.1158
2022-08-03T07:59:00.326Z,990.1716
2022-08-03T08:00:02.245Z,990.081
2022-08-03T08:01:00.692Z,990.1331
2022-08-03T08:02:00.775Z,990.1189
2022-08-03T08:03:00.928Z,989.9929
2022-08-03T08:04:01.092Z,989.9778
2022-08-03T08:05:05.473Z,989.9921
2022-08-03T08:06:00.390Z,990.0442
2022-08-03T08:07:00.562Z,990.1331
2022-08-03T08:08:00.726Z,989.9482
2022-08-03T08:09:00.887Z,990.0217
2022-08-03T08:10:01.055Z,990.2344
2022-08-03T08:11:01.198Z,990.0322
2022-08-03T08:12:00.336Z,990.1203
2022-08-03T08:13:00.488Z,989.8807
2022-08-03T08:14:00.646Z,989.9882
2022-08-03T08:15:00.810Z,989.9956
2022-08-03T08:16:00.947Z,990.0179
2022-08-03T08:17:04.458Z,989.8532
2022-08-03T08:18:01.253Z,989.8577
2022-08-03T08:19:00.399Z,989.8687
2022-08-03T08:20:00.588Z,990.0012
2022-08-03T08:21:00.719Z,989.9929
2022-08-03T08:22:02.860Z,989.8934
2022-08-03T08:23:01.425Z,989.7737
2022-08-03T08:24:01.169Z,989.8156
2022-08-03T08:25:01.325Z,989.9705
2022-08-03T08:26:00.462Z,989.9337
2022-08-03T08:27:00.630Z,989.914
2022-08-03T08:28:29.184Z,989.8637
2022-08-03T08:29:00.952Z,989.8043
2022-08-03T08:30:10.192Z,990.0174
2022-08-03T08:31:01.256Z,990.0957
2022-08-03T08:32:00.397Z,990.0117
2022-08-03T08:33:00.551Z,989.973
2022-08-03T08:34:04.088Z,989.9318
2022-08-03T08:35:00.892Z,989.9434
2022-08-03T08:36:01.013Z,989.8655
2022-08-03T08:37:01.162Z,989.8849
2022-08-03T08:38:00.323Z,989.9689
2022-08-03T08:39:00.480Z,989.853
2022-08-03T08:40:00.651Z,990.0325
2022-08-03T08:41:00.785Z,989.897
2022-08-03T08:42:00.942Z,989.8777
2022-08-03T08:43:01.102Z,989.8539
2022-08-03T08:44:01.277Z,989.8754
2022-08-03T08:45:00.420Z,989.8921
2022-08-03T08:46:00.567Z,989.9281
2022-08-03T08:47:00.721Z,989.8817
2022-08-03T08:48:02.677Z,989.8519
2022-08-03T08:49:04.952Z,989.8387
2022-08-03T08:50:09.194Z,989.7955
2022-08-03T08:51:00.357Z,989.8769
2022-08-03T08:52:01.095Z,989.823
2022-08-03T08:53:00.664Z,989.8879
2022-08-03T08:54:00.834Z,989.8549
2022-08-03T08:55:00.974Z,989.9271
2022-08-03T08:56:01.544Z,989.8031
2022-08-03T08:57:00.282Z,989.8142
2022-08-03T08:58:00.419Z,989.9163
2022-08-03T08:59:00.567Z,989.8023
2022-08-03T09:00:00.728Z,989.7835
2022-08-03T09:01:00.946Z,989.8381
2022-08-03T09:02:01.047Z,989.9865
2022-08-03T09:03:01.175Z,989.7476
2022-08-03T09:04:00.335Z,989.7775
2022-08-03T09:05:05.335Z,989.8638
2022-08-03T09:06:00.681Z,989.7805
2022-08-03T09:07:19.191Z,989.8175
2022-08-03T09:08:00.944Z,989.86
2022-08-03T09:09:01.091Z,989.6823
2022-08-03T09:10:11.182Z,989.7877
2022-08-03T09:11:00.415Z,989.9199
2022-08-03T09:12:20.017Z,989.7566
2022-08-03T09:13:00.701Z,989.8335
2022-08-03T09:14:00.851Z,989.8424
2022-08-03T09:15:16.386Z,989.8188
2022-08-03T09:16:01.659Z,989.866
2022-08-03T09:17:00.337Z,989.7928
2022-08-03T09:18:00.446Z,989.8744
2022-08-03T09:19:00.602Z,989.7557
2022-08-03T09:20:03.177Z,989.9759
2022-08-03T09:21:14.738Z,989.8826
2022-08-03T09:22:01.084Z,989.9163
2022-08-03T09:23:01.233Z,989.7834
2022-08-03T09:24:02.167Z,989.9318
2022-08-03T09:25:22.957Z,990.0213
2022-08-03T09:26:00.671Z,989.9297
2022-08-03T09:27:00.826Z,989.8573
2022-08-03T09:28:00.991Z,989.8564
2022-08-03T09:29:05.617Z,989.8824
2022-08-03T09:30:00.297Z,989.8036
2022-08-03T09:31:00.425Z,989.8509
2022-08-03T09:32:00.584Z,989.9377
2022-08-03T09:33:00.757Z,989.7929
2022-08-03T09:34:00.899Z,990.0231
2022-08-03T09:35:01.054Z,989.9368
2022-08-03T09:36:01.209Z,989.8527
2022-08-03T09:37:00.361Z,989.7773
2022-08-03T09:38:11.826Z,989.7818
2022-08-03T09:39:00.684Z,989.8045
2022-08-03T09:40:00.814Z,990.0683
2022-08-03T09:41:01.154Z,989.8724
2022-08-03T09:42:01.126Z,989.9208
2022-08-03T09:43:00.283Z,989.8272
2022-08-03T09:44:00.446Z,989.7808
2022-08-03T09:45:00.576Z,989.7578
2022-08-03T09:46:00.723Z,989.7375
2022-08-03T09:47:00.875Z,989.7393
2022-08-03T09:48:01.030Z,989.7446
2022-08-03T09:49:01.247Z,989.7737
2022-08-03T09:50:00.326Z,989.9199
2022-08-03T09:51:13.152Z,989.6793
2022-08-03T09:52:37.850Z,989.6329
2022-08-03T09:53:00.778Z,989.6767
2022-08-03T09:54:00.934Z,989.6742
2022-08-03T09:55:01.108Z,990.0312
2022-08-03T09:56:34.727Z,989.6785
2022-08-03T09:57:00.435Z,989.7847
2022-08-03T09:58:00.557Z,989.8188
2022-08-03T09:59:00.719Z,989.7919
2022-08-03T10:00:06.149Z,989.8457
2022-08-03T10:01:01.109Z,989.8318
2022-08-03T10:02:01.159Z,989.675
2022-08-03T10:03:00.296Z,989.7363
2022-08-03T10:04:03.836Z,989.6337
2022-08-03T10:05:00.600Z,989.7417
2022-08-03T10:06:00.805Z,989.6206
2022-08-03T10:07:00.899Z,989.8138
2022-08-03T10:08:01.061Z,989.6751
2022-08-03T10:09:01.207Z,989.7034
2022-08-03T10:10:31.740Z,989.7001
2022-08-03T10:11:00.563Z,989.7282
2022-08-03T10:12:00.699Z,989.6153
2022-08-03T10:13:00.859Z,989.7279
2022-08-03T10:14:01.417Z,989.6825
2022-08-03T10:15:01.166Z,989.6237
2022-08-03T10:16:23.606Z,989.695
2022-08-03T10:17:00.503Z,989.724
2022-08-03T10:18:00.633Z,989.573
2022-08-03T10:19:00.776Z,989.6738
2022-08-03T10:20:00.953Z,989.5984
2022-08-03T10:21:01.096Z,989.4343
2022-08-03T10:22:01.279Z,989.6233
2022-08-03T10:23:00.402Z,989.5278
2022-08-03T10:24:00.561Z,989.5565
2022-08-03T10:25:00.702Z,989.5805
2022-08-03T10:26:00.853Z,989.5617
2022-08-03T10:27:01.035Z,989.5162
2022-08-03T10:28:01.149Z,989.6359
2022-08-03T10:29:00.306Z,989.4514
2022-08-03T10:30:00.458Z,989.5938
2022-08-03T10:31:00.610Z,989.4595
2022-08-03T10:32:00.789Z,989.5782
2022-08-03T10:33:00.931Z,989.4585
2022-08-03T10:34:01.075Z,989.443
2022-08-03T10:35:04.182Z,989.4196
2022-08-03T10:36:00.379Z,989.4408
2022-08-03T10:37:00.550Z,989.4461
2022-08-03T10:38:00.693Z,989.3885
2022-08-03T10:39:00.847Z,989.5146
2022-08-03T10:40:00.986Z,989.5257
2022-08-03T10:41:01.147Z,989.5185
2022-08-03T10:42:02.848Z,989.4815
2022-08-03T10:43:00.489Z,989.512
2022-08-03T10:44:00.622Z,989.4329
2022-08-03T10:45:00.776Z,989.6274
2022-08-03T10:46:00.926Z,989.6274
2022-08-03T10:47:01.101Z,989.642
2022-08-03T10:48:01.232Z,989.5359
2022-08-03T10:49:00.470Z,989.5646
2022-08-03T10:50:00.539Z,989.4886
2022-08-03T10:51:00.691Z,989.4647
2022-08-03T10:52:00.857Z,989.3959
2022-08-03T10:53:02.071Z,989.3934
2022-08-03T10:54:01.732Z,989.3934
2022-08-03T10:55:00.345Z,989.6183
2022-08-03T10:56:00.472Z,989.3906
2022-08-03T10:57:13.663Z,989.445
2022-08-03T10:58:00.763Z,989.2371
2022-08-03T10:59:00.906Z,989.4926
2022-08-03T11:00:01.061Z,989.4329
2022-08-03T11:01:01.249Z,989.3423
2022-08-03T11:02:01.304Z,989.3576
2022-08-03T11:03:00.511Z,989.2826
2022-08-03T11:04:00.715Z,989.4092
2022-08-03T11:05:00.788Z,989.3566
2022-08-03T11:06:00.946Z,989.2822
2022-08-03T11:07:01.099Z,989.4092
2022-08-03T11:08:01.262Z,989.2978
2022-08-03T11:09:00.459Z,989.2978
2022-08-03T11:10:00.583Z,989.4164
2022-08-03T11:11:00.746Z,989.2072
2022-08-03T11:12:00.906Z,989.271
2022-08-03T11:13:01.056Z,989.2296
2022-08-03T11:14:01.222Z,989.2947
2022-08-03T11:15:00.362Z,989.2947
2022-08-03T11:16:02.986Z,989.0769
2022-08-03T11:17:00.654Z,989.1666
2022-08-03T11:18:00.813Z,989.2109
2022-08-03T11:19:00.980Z,989.2037
2022-08-03T11:20:01.125Z,989.2947
2022-08-03T11:21:00.279Z,989.2772
2022-08-03T11:22:00.417Z,989.3576
2022-08-03T11:23:00.563Z,989.3143
2022-08-03T11:24:05.307Z,989.2536
2022-08-03T11:25:00.883Z,989.2742
2022-08-03T11:26:01.041Z,989.4071
2022-08-03T11:27:05.732Z,989.1885
2022-08-03T11:28:00.344Z,989.2639
2022-08-03T11:29:00.522Z,989.3588
2022-08-03T11:30:00.662Z,989.2049
2022-08-03T11:31:00.808Z,989.3317
2022-08-03T11:32:00.959Z,989.1451
2022-08-03T11:33:01.111Z,989.1679
2022-08-03T11:34:00.265Z,989.1451
2022-08-03T11:35:00.402Z,989.1523
2022-08-03T11:36:00.560Z,989.1439
2022-08-03T11:37:00.717Z,989.1058
2022-08-03T11:38:03.004Z,989.1416
2022-08-03T11:39:01.049Z,989.2102
2022-08-03T11:40:02.802Z,989.28
2022-08-03T11:41:00.320Z,989.1685
2022-08-03T11:42:00.475Z,989.1358
2022-08-03T11:43:00.628Z,989.1943
2022-08-03T11:44:00.808Z,989.1098
2022-08-03T11:45:00.936Z,989.2813
2022-08-03T11:46:01.089Z,989.1544
2022-08-03T11:47:01.240Z,989.1603
2022-08-03T11:48:00.397Z,989.0617